createdAt,value
2022-10-24T00:01:40.417Z,17.40
2022-10-24T00:04:27.709Z,17.50
2022-10-24T00:07:15.116Z,17.50
2022-10-24T00:10:03.675Z,17.50
2022-10-24T00:12:51.041Z,17.50
2022-10-24T00:15:38.790Z,17.50
2022-10-24T00:18:25.492Z,17.50
2022-10-24T00:21:12.910Z,17.60
2022-10-24T00:24:00.039Z,17.60
2022-10-24T00:26:48.379Z,17.60
2022-10-24T00:29:35.194Z,17.60
2022-10-24T00:32:22.417Z,17.60
2022-10-24T00:35:11.475Z,17.60
2022-10-24T00:37:58.761Z,17.60
2022-10-24T00:40:46.159Z,17.50
2022-10-24T00:43:34.715Z,17.50
2022-10-24T00:46:22.083Z,17.40
2022-10-24T00:49:15.328Z,17.40
2022-10-24T00:52:04.375Z,17.30
2022-10-24T00:54:54.295Z,17.20
2022-10-24T00:57:46.478Z,17.10
2022-10-24T01:00:36.266Z,17.10
2022-10-24T01:03:23.707Z,17.00
2022-10-24T01:06:28.705Z,17.00
2022-10-24T01:09:31.728Z,17.00
2022-10-24T01:12:30.073Z,16.90
2022-10-24T01:15:24.953Z,16.90
2022-10-24T01:18:19.547Z,16.80
2022-10-24T01:21:25.122Z,16.70
2022-10-24T01:24:30.993Z,16.60
2022-10-24T01:27:40.695Z,16.60
2022-10-24T01:30:33.818Z,16.50
2022-10-24T01:33:28.332Z,16.40
2022-10-24T01:36:25.209Z,16.40
2022-10-24T01:39:17.660Z,16.30
2022-10-24T01:42:07.772Z,16.30
2022-10-24T01:44:59.087Z,16.20
2022-10-24T01:47:52.489Z,16.20
2022-10-24T01:50:42.435Z,16.20
2022-10-24T01:53:32.354Z,16.10
2022-10-24T01:56:19.214Z,16.10
2022-10-24T01:59:07.538Z,16.10
2022-10-24T02:01:59.969Z,16.10
2022-10-24T02:04:54.172Z,16.00
2022-10-24T02:07:45.101Z,16.00
2022-10-24T02:10:37.021Z,16.00
2022-10-24T02:13:30.677Z,16.00
2022-10-24T02:16:19.951Z,16.00
2022-10-24T02:19:07.699Z,16.00
2022-10-24T02:22:03.216Z,16.00
2022-10-24T02:24:54.872Z,16.00
2022-10-24T02:27:47.550Z,15.90
2022-10-24T02:30:40.797Z,15.90
2022-10-24T02:33:30.487Z,15.90
2022-10-24T02:36:21.121Z,15.90
2022-10-24T02:39:12.635Z,15.90
2022-10-24T02:42:00.992Z,15.90
2022-10-24T02:44:49.326Z,15.90
2022-10-24T02:47:37.161Z,15.90
2022-10-24T02:50:24.387Z,15.90
2022-10-24T02:53:15.350Z,15.80
2022-10-24T02:56:03.860Z,15.90
2022-10-24T02:58:50.722Z,15.80
2022-10-24T03:01:37.946Z,15.80
2022-10-24T03:04:28.302Z,15.80
2022-10-24T03:07:15.621Z,15.80
2022-10-24T03:10:02.645Z,15.80
2022-10-24T03:12:51.581Z,15.70
2022-10-24T03:15:38.642Z,15.70
2022-10-24T03:18:25.633Z,15.80
2022-10-24T03:21:12.765Z,15.80
2022-10-24T03:23:59.962Z,15.80
2022-10-24T03:26:46.867Z,15.80
2022-10-24T03:29:35.615Z,15.80
2022-10-24T03:32:22.861Z,15.80
2022-10-24T03:35:13.228Z,15.80
2022-10-24T03:38:01.447Z,15.80
2022-10-24T03:40:48.776Z,15.80
2022-10-24T03:43:35.818Z,15.90
2022-10-24T03:46:24.135Z,15.80
2022-10-24T03:49:11.488Z,15.90
2022-10-24T03:51:58.292Z,15.90
2022-10-24T03:54:45.731Z,15.90
2022-10-24T03:57:33.029Z,15.90
2022-10-24T04:00:20.642Z,15.90
2022-10-24T04:03:10.260Z,15.90
2022-10-24T04:05:57.474Z,15.90
2022-10-24T04:08:44.753Z,15.90
2022-10-24T04:11:31.803Z,15.90
2022-10-24T04:14:18.918Z,16.00
2022-10-24T04:17:05.822Z,16.00
2022-10-24T04:19:54.547Z,16.00
2022-10-24T04:22:41.893Z,16.10
2022-10-24T04:25:29.285Z,16.10
2022-10-24T04:28:16.787Z,16.10
2022-10-24T04:31:03.628Z,16.10
2022-10-24T04:33:50.882Z,16.10
2022-10-24T04:36:39.538Z,16.10
2022-10-24T04:39:26.582Z,16.10
2022-10-24T04:42:13.480Z,16.10
2022-10-24T04:45:00.473Z,16.10
2022-10-24T04:47:47.858Z,16.10
2022-10-24T04:50:35.051Z,16.00
2022-10-24T04:53:24.083Z,16.00
2022-10-24T04:56:12.232Z,16.00
2022-10-24T04:58:59.852Z,15.90
2022-10-24T05:01:47.556Z,15.90
2022-10-24T05:04:35.037Z,15.90
2022-10-24T05:07:22.804Z,15.80
2022-10-24T05:10:12.931Z,15.80
2022-10-24T05:13:00.546Z,15.80
2022-10-24T05:15:48.096Z,15.80
2022-10-24T05:18:35.570Z,15.70
2022-10-24T05:21:23.510Z,15.80
2022-10-24T05:24:11.671Z,15.80
2022-10-24T05:27:00.930Z,15.80
2022-10-24T05:29:48.500Z,15.80
2022-10-24T05:32:38.805Z,15.70
2022-10-24T05:35:28.032Z,15.80
2022-10-24T05:38:15.794Z,15.80
2022-10-24T05:41:03.352Z,15.80
2022-10-24T05:43:52.463Z,15.80
2022-10-24T05:46:40.022Z,15.80
2022-10-24T05:49:28.108Z,15.70
2022-10-24T05:52:15.529Z,15.70
2022-10-24T05:55:09.729Z,15.70
2022-10-24T05:57:57.305Z,15.70
2022-10-24T06:00:48.811Z,15.70
2022-10-24T06:03:39.806Z,15.70
2022-10-24T06:06:28.111Z,15.70
2022-10-24T06:09:15.965Z,15.70
2022-10-24T06:12:03.803Z,15.70
2022-10-24T06:14:51.738Z,15.70
2022-10-24T06:17:41.281Z,15.70
2022-10-24T06:20:29.270Z,15.70
2022-10-24T06:23:17.411Z,15.70
2022-10-24T06:26:10.284Z,15.70
2022-10-24T06:28:58.043Z,15.70
2022-10-24T06:31:45.651Z,15.70
2022-10-24T06:34:35.827Z,15.70
2022-10-24T06:37:23.708Z,15.80
2022-10-24T06:40:12.066Z,15.80
2022-10-24T06:42:59.573Z,15.80
2022-10-24T06:45:47.746Z,15.70
2022-10-24T06:48:35.565Z,15.70
2022-10-24T06:51:25.508Z,15.80
2022-10-24T06:54:16.731Z,15.80
2022-10-24T06:57:05.029Z,15.80
2022-10-24T06:59:53.121Z,15.80
2022-10-24T07:02:41.189Z,15.80
2022-10-24T07:05:29.133Z,15.90
2022-10-24T07:08:18.532Z,15.90
2022-10-24T07:11:06.478Z,15.90
2022-10-24T07:13:56.662Z,15.90
2022-10-24T07:16:47.834Z,15.90
2022-10-24T07:19:37.485Z,16.00
2022-10-24T07:22:27.407Z,16.00
2022-10-24T07:25:19.918Z,16.00
2022-10-24T07:28:08.233Z,16.00
2022-10-24T07:30:55.898Z,16.00
2022-10-24T07:33:44.055Z,16.00
2022-10-24T07:36:32.038Z,16.00
2022-10-24T07:39:20.139Z,16.10
2022-10-24T07:42:09.280Z,16.10
2022-10-24T07:44:57.022Z,16.10
2022-10-24T07:47:45.171Z,16.10
2022-10-24T07:50:34.260Z,16.10
2022-10-24T07:53:21.801Z,16.20
2022-10-24T07:56:13.530Z,16.10
2022-10-24T07:59:09.012Z,16.20
2022-10-24T08:02:01.941Z,16.20
2022-10-24T08:04:49.720Z,16.20
2022-10-24T08:07:37.809Z,16.20
2022-10-24T08:10:25.666Z,16.20
2022-10-24T08:13:14.024Z,16.20
2022-10-24T08:16:04.095Z,16.20
2022-10-24T08:18:53.367Z,16.20
2022-10-24T08:21:40.912Z,16.20
2022-10-24T08:24:29.073Z,16.20
2022-10-24T08:27:17.036Z,16.20
2022-10-24T08:30:05.512Z,16.20
2022-10-24T08:32:55.137Z,16.30
2022-10-24T08:35:45.607Z,16.30
2022-10-24T08:38:33.552Z,16.30
2022-10-24T08:41:29.434Z,16.40
2022-10-24T08:44:23.353Z,16.50
2022-10-24T08:47:15.234Z,16.50
2022-10-24T08:50:11.371Z,16.40
2022-10-24T08:53:04.245Z,16.50
2022-10-24T08:55:54.941Z,16.50
2022-10-24T08:58:45.459Z,16.50
2022-10-24T09:01:39.783Z,16.50
2022-10-24T09:04:36.063Z,16.60
2022-10-24T09:07:26.201Z,16.60
2022-10-24T09:10:20.734Z,16.60
2022-10-24T09:13:15.545Z,16.60
2022-10-24T09:16:03.707Z,16.60
2022-10-24T09:18:54.936Z,16.60
2022-10-24T09:21:44.855Z,16.70
2022-10-24T09:24:41.161Z,16.70
2022-10-24T09:27:31.227Z,16.70
2022-10-24T09:30:21.366Z,16.80
2022-10-24T09:33:22.234Z,16.80
2022-10-24T09:36:14.075Z,16.80
2022-10-24T09:39:27.026Z,16.90
2022-10-24T09:42:24.044Z,16.90
2022-10-24T09:45:26.833Z,16.80
2022-10-24T09:48:27.551Z,16.90
2022-10-24T09:51:25.325Z,16.90
2022-10-24T09:54:29.495Z,16.90
2022-10-24T09:57:19.363Z,16.90
2022-10-24T10:00:08.684Z,16.90
2022-10-24T10:03:02.741Z,16.90
2022-10-24T10:05:52.503Z,16.90
2022-10-24T10:08:40.269Z,17.00
2022-10-24T10:11:31.640Z,16.90
2022-10-24T10:14:25.518Z,16.80
2022-10-24T10:17:24.274Z,16.90
2022-10-24T10:20:26.010Z,16.80
2022-10-24T10:23:31.707Z,16.80
2022-10-24T10:26:24.660Z,16.80
2022-10-24T10:29:26.151Z,16.80
2022-10-24T10:32:24.861Z,16.80
2022-10-24T10:35:21.541Z,16.90
2022-10-24T10:38:26.728Z,16.80
2022-10-24T10:41:23.856Z,16.90
2022-10-24T10:44:29.577Z,16.90
2022-10-24T10:47:35.652Z,16.90
2022-10-24T10:50:37.288Z,16.90
2022-10-24T10:53:37.275Z,16.90
2022-10-24T10:56:36.361Z,16.90
2022-10-24T10:59:42.539Z,16.90
2022-10-24T11:02:52.955Z,16.90
2022-10-24T11:05:54.434Z,16.90
2022-10-24T11:09:05.238Z,16.90
2022-10-24T11:12:00.924Z,16.90
2022-10-24T11:14:55.417Z,16.90
2022-10-24T11:17:51.632Z,16.80
2022-10-24T11:20:44.663Z,16.80
2022-10-24T11:23:37.333Z,16.80
2022-10-24T11:26:32.592Z,16.80
2022-10-24T11:29:31.148Z,16.80
2022-10-24T11:32:26.283Z,16.70
2022-10-24T11:35:26.383Z,16.70
2022-10-24T11:38:17.558Z,16.60
2022-10-24T11:41:24.919Z,16.50
2022-10-24T11:44:32.788Z,16.50
2022-10-24T11:47:44.620Z,16.50
2022-10-24T11:50:40.130Z,16.40
2022-10-24T11:53:50.541Z,16.40
2022-10-24T11:56:43.670Z,16.40
2022-10-24T11:59:31.996Z,16.40
2022-10-24T12:02:44.603Z,16.40
2022-10-24T12:05:52.111Z,16.40
2022-10-24T12:09:00.994Z,16.40
2022-10-24T12:12:04.952Z,16.40
2022-10-24T12:15:03.695Z,16.40
2022-10-24T12:18:05.273Z,16.40
2022-10-24T12:20:55.173Z,16.40
2022-10-24T12:23:44.400Z,16.30
2022-10-24T12:26:34.228Z,16.20
2022-10-24T12:29:25.343Z,16.20
2022-10-24T12:32:35.070Z,16.20
2022-10-24T12:35:49.102Z,16.20
2022-10-24T12:39:04.800Z,16.20
2022-10-24T12:41:51.539Z,16.20
2022-10-24T12:44:43.612Z,16.10
2022-10-24T12:47:36.821Z,16.20
2022-10-24T12:50:56.621Z,16.20
2022-10-24T12:54:02.894Z,16.20
2022-10-24T12:57:17.076Z,16.20
2022-10-24T13:00:23.374Z,16.20
2022-10-24T13:03:20.926Z,16.10
2022-10-24T13:06:11.287Z,16.20
2022-10-24T13:09:15.586Z,16.10
2022-10-24T13:12:15.177Z,16.10
2022-10-24T13:15:22.899Z,16.10
2022-10-24T13:18:24.848Z,16.10
2022-10-24T13:21:21.304Z,16.10
2022-10-24T13:24:14.968Z,16.10
2022-10-24T13:27:26.900Z,16.10
2022-10-24T13:30:29.051Z,16.00
2022-10-24T13:33:33.562Z,15.90
2022-10-24T13:36:27.796Z,15.90
2022-10-24T13:39:20.355Z,15.90
2022-10-24T13:42:20.834Z,15.90
2022-10-24T13:45:23.791Z,15.90
2022-10-24T13:48:19.313Z,15.80
2022-10-24T13:51:14.132Z,15.70
2022-10-24T13:54:09.402Z,15.80
2022-10-24T13:56:59.802Z,15.80
2022-10-24T13:59:56.691Z,15.80
2022-10-24T14:02:45.330Z,15.70
2022-10-24T14:05:39.288Z,15.70
2022-10-24T14:08:30.300Z,15.70
2022-10-24T14:11:23.441Z,15.70
2022-10-24T14:14:27.209Z,15.70
2022-10-24T14:17:24.050Z,15.60
2022-10-24T14:20:25.141Z,15.60
2022-10-24T14:23:26.561Z,15.60
2022-10-24T14:26:19.161Z,15.60
2022-10-24T14:29:06.672Z,15.60
2022-10-24T14:31:59.572Z,15.50
2022-10-24T14:34:50.492Z,15.50
2022-10-24T14:37:40.011Z,15.50
2022-10-24T14:40:31.604Z,15.50
2022-10-24T14:43:23.259Z,15.50
2022-10-24T14:46:28.346Z,15.50
2022-10-24T14:49:24.328Z,15.40
2022-10-24T14:52:18.019Z,15.40
2022-10-24T14:55:06.945Z,15.40
2022-10-24T14:57:57.139Z,15.20
2022-10-24T15:00:45.194Z,15.30
2022-10-24T15:03:32.660Z,15.20
2022-10-24T15:06:26.101Z,15.20
2022-10-24T15:09:17.286Z,15.30
2022-10-24T15:12:04.972Z,15.20
2022-10-24T15:14:54.858Z,15.10
2022-10-24T15:17:42.474Z,15.20
2022-10-24T15:20:34.524Z,15.10
2022-10-24T15:23:27.274Z,15.20
2022-10-24T15:26:21.413Z,15.10
2022-10-24T15:29:19.425Z,15.10
2022-10-24T15:32:12.856Z,15.20
2022-10-24T15:34:59.957Z,15.20
2022-10-24T15:37:57.682Z,15.00
2022-10-24T15:40:47.708Z,15.00
2022-10-24T15:43:35.240Z,15.00
2022-10-24T15:46:23.541Z,15.00
2022-10-24T15:49:12.637Z,15.00
2022-10-24T15:52:00.528Z,15.00
2022-10-24T15:54:48.542Z,15.00
2022-10-24T15:57:41.730Z,14.90
2022-10-24T16:00:29.514Z,14.90
2022-10-24T16:03:22.678Z,14.90
2022-10-24T16:06:11.853Z,14.90
2022-10-24T16:08:59.932Z,14.80
2022-10-24T16:11:48.149Z,14.80
2022-10-24T16:14:36.038Z,14.80
2022-10-24T16:17:24.013Z,14.80
2022-10-24T16:20:11.604Z,14.70
2022-10-24T16:23:00.729Z,14.70
2022-10-24T16:25:48.491Z,14.80
2022-10-24T16:28:36.149Z,14.70
2022-10-24T16:31:24.464Z,14.80
2022-10-24T16:34:12.537Z,14.70
2022-10-24T16:37:00.371Z,14.70
2022-10-24T16:39:49.847Z,14.70
2022-10-24T16:42:37.529Z,14.70
2022-10-24T16:45:25.718Z,14.70
2022-10-24T16:48:13.128Z,14.70
2022-10-24T16:51:01.055Z,14.70
2022-10-24T16:53:48.810Z,14.70
2022-10-24T16:56:41.232Z,14.60
2022-10-24T16:59:29.312Z,14.60
2022-10-24T17:02:18.753Z,14.60
2022-10-24T17:05:06.652Z,14.60
2022-10-24T17:07:54.684Z,14.60
2022-10-24T17:10:42.293Z,14.60
2022-10-24T17:13:31.468Z,14.60
2022-10-24T17:16:19.076Z,14.60
2022-10-24T17:19:15.543Z,14.60
2022-10-24T17:22:06.095Z,14.60
2022-10-24T17:24:53.527Z,14.60
2022-10-24T17:27:41.388Z,14.50
2022-10-24T17:30:31.698Z,14.50
2022-10-24T17:33:19.302Z,14.40
2022-10-24T17:36:15.395Z,14.50
2022-10-24T17:39:10.182Z,14.50
2022-10-24T17:41:58.343Z,14.50
2022-10-24T17:44:48.164Z,14.50
2022-10-24T17:47:36.863Z,14.40
2022-10-24T17:50:24.444Z,14.40
2022-10-24T17:53:13.836Z,14.40
2022-10-24T17:56:01.239Z,14.40
2022-10-24T17:58:51.008Z,14.50
2022-10-24T18:01:38.826Z,14.50
2022-10-24T18:04:28.363Z,14.50
2022-10-24T18:07:16.528Z,14.50
2022-10-24T18:10:04.520Z,14.50
2022-10-24T18:12:52.690Z,14.40
2022-10-24T18:15:40.415Z,14.40
2022-10-24T18:18:29.578Z,14.40
2022-10-24T18:21:20.882Z,14.40
2022-10-24T18:24:09.892Z,14.40
2022-10-24T18:26:57.561Z,14.40
2022-10-24T18:29:45.832Z,14.40
2022-10-24T18:32:33.741Z,14.40
2022-10-24T18:35:22.764Z,14.40
2022-10-24T18:38:12.094Z,14.30
2022-10-24T18:41:00.177Z,14.30
2022-10-24T18:43:48.087Z,14.30
2022-10-24T18:46:36.096Z,14.30
2022-10-24T18:49:24.227Z,14.30
2022-10-24T18:52:18.927Z,14.30
2022-10-24T18:55:18.388Z,14.30
2022-10-24T18:58:06.025Z,14.30
2022-10-24T19:00:58.737Z,14.30
2022-10-24T19:03:47.298Z,14.30
2022-10-24T19:06:35.937Z,14.20
2022-10-24T19:09:26.659Z,14.30
2022-10-24T19:12:15.639Z,14.30
2022-10-24T19:15:03.472Z,14.20
2022-10-24T19:17:53.041Z,14.20
2022-10-24T19:20:42.730Z,14.20
2022-10-24T19:23:30.093Z,14.20
2022-10-24T19:26:17.081Z,14.20
2022-10-24T19:29:06.107Z,14.20
2022-10-24T19:31:53.184Z,14.30
2022-10-24T19:34:41.547Z,14.20
2022-10-24T19:37:28.651Z,14.20
2022-10-24T19:40:16.005Z,14.20
2022-10-24T19:43:03.095Z,14.20
2022-10-24T19:46:07.599Z,14.20
2022-10-24T19:49:02.406Z,14.20
2022-10-24T19:51:52.038Z,14.30
2022-10-24T19:54:39.585Z,14.30
2022-10-24T19:57:27.581Z,14.20
2022-10-24T20:00:15.310Z,14.20
2022-10-24T20:03:04.325Z,14.20
2022-10-24T20:05:51.810Z,14.20
2022-10-24T20:08:40.179Z,14.20
2022-10-24T20:11:27.591Z,14.20
2022-10-24T20:14:15.362Z,14.20
2022-10-24T20:17:03.098Z,14.10
2022-10-24T20:19:51.978Z,14.20
2022-10-24T20:22:39.648Z,14.20
2022-10-24T20:25:27.493Z,14.20
2022-10-24T20:28:15.081Z,14.20
2022-10-24T20:31:02.553Z,14.10
2022-10-24T20:33:50.145Z,14.10
2022-10-24T20:36:42.534Z,14.20
2022-10-24T20:39:29.539Z,14.10
2022-10-24T20:42:18.332Z,14.20
2022-10-24T20:45:05.997Z,14.10
2022-10-24T20:47:54.787Z,14.10
2022-10-24T20:50:42.028Z,14.10
2022-10-24T20:53:33.719Z,14.10
2022-10-24T20:56:26.108Z,14.00
2022-10-24T20:59:15.130Z,14.00
2022-10-24T21:02:02.908Z,13.90
2022-10-24T21:04:50.758Z,13.90
2022-10-24T21:07:38.456Z,13.90
2022-10-24T21:10:28.034Z,13.80
2022-10-24T21:13:15.520Z,13.90
2022-10-24T21:16:03.582Z,13.80
2022-10-24T21:18:51.154Z,13.80
2022-10-24T21:21:38.711Z,13.80
2022-10-24T21:24:26.182Z,13.80
2022-10-24T21:27:14.943Z,13.80
2022-10-24T21:30:02.524Z,13.80
2022-10-24T21:32:50.124Z,13.80
2022-10-24T21:35:39.716Z,13.80
2022-10-24T21:38:27.467Z,13.80
2022-10-24T21:41:15.075Z,13.80
2022-10-24T21:44:03.318Z,13.70
2022-10-24T21:46:52.247Z,13.80
2022-10-24T21:49:39.469Z,13.70
2022-10-24T21:52:26.920Z,13.70
2022-10-24T21:55:14.499Z,13.70
2022-10-24T21:58:02.108Z,13.70
2022-10-24T22:00:51.159Z,13.70
2022-10-24T22:03:38.641Z,13.70
2022-10-24T22:06:27.794Z,13.70
2022-10-24T22:09:19.519Z,13.70
2022-10-24T22:12:07.194Z,13.60
2022-10-24T22:14:54.772Z,13.60
2022-10-24T22:17:44.291Z,13.70
2022-10-24T22:20:32.647Z,13.70
2022-10-24T22:23:20.672Z,13.70
2022-10-24T22:26:08.453Z,13.70
2022-10-24T22:28:56.955Z,13.70
2022-10-24T22:31:45.126Z,13.70
2022-10-24T22:34:33.946Z,13.70
2022-10-24T22:37:26.395Z,13.70
2022-10-24T22:40:25.188Z,13.60
2022-10-24T22:43:13.345Z,13.60
2022-10-24T22:46:12.946Z,13.60
2022-10-24T22:49:06.232Z,13.50
2022-10-24T22:51:55.110Z,13.40
2022-10-24T22:54:43.291Z,13.30
2022-10-24T22:57:31.154Z,13.30
2022-10-24T23:00:19.611Z,13.30
2022-10-24T23:03:16.927Z,13.30
2022-10-24T23:06:15.504Z,13.20
2022-10-24T23:09:04.782Z,13.20
2022-10-24T23:11:52.655Z,13.10
2022-10-24T23:14:40.012Z,13.10
2022-10-24T23:17:29.876Z,13.00
2022-10-24T23:20:28.604Z,13.00
2022-10-24T23:23:28.872Z,13.00
2022-10-24T23:26:33.407Z,12.90
2022-10-24T23:29:25.953Z,12.90
2022-10-24T23:32:21.479Z,12.70
2022-10-24T23:35:10.796Z,12.70
2022-10-24T23:37:58.739Z,12.70
2022-10-24T23:40:46.615Z,12.60
2022-10-24T23:43:35.517Z,12.60
2022-10-24T23:46:28.880Z,12.60
2022-10-24T23:49:27.462Z,12.60
2022-10-24T23:52:26.717Z,12.50
2022-10-24T23:55:14.572Z,12.50
2022-10-24T23:58:02.267Z,12.50
